createdAt,value
2017-08-11T00:00:51.362Z,6.2
2017-08-11T00:01:53.810Z,6.2
2017-08-11T00:02:56.613Z,6.2
2017-08-11T00:03:59.071Z,6.2
2017-08-11T00:05:01.866Z,6.2
2017-08-11T00:06:04.652Z,6.2
2017-08-11T00:07:07.118Z,6.3
2017-08-11T00:08:09.563Z,6.2
2017-08-11T00:09:12.694Z,6.2
2017-08-11T00:10:15.477Z,6.2
2017-08-11T00:11:18.273Z,6.2
2017-08-11T00:12:21.068Z,6.2
2017-08-11T00:13:23.519Z,6.2
2017-08-11T00:14:25.998Z,6.2
2017-08-11T00:15:28.445Z,6.2
2017-08-11T00:16:30.902Z,6.3
2017-08-11T00:17:33.709Z,6.2
2017-08-11T00:18:36.514Z,6.2
2017-08-11T00:19:38.970Z,6.3
2017-08-11T00:20:42.090Z,6.2
2017-08-11T00:21:44.546Z,6.2
2017-08-11T00:22:47.002Z,6.2
2017-08-11T00:23:49.454Z,6.2
2017-08-11T00:24:52.578Z,6.3
2017-08-11T00:25:55.038Z,6.2
2017-08-11T00:26:57.502Z,6.2
2017-08-11T00:28:00.640Z,6.2
2017-08-11T00:29:03.759Z,6.2
2017-08-11T00:30:06.619Z,6.2
2017-08-11T00:31:09.418Z,6.2
2017-08-11T00:32:11.882Z,6.2
2017-08-11T00:33:14.352Z,6.2
2017-08-11T00:34:17.159Z,6.2
2017-08-11T00:35:19.949Z,6.2
2017-08-11T00:36:22.410Z,6.2
2017-08-11T00:37:25.204Z,6.2
2017-08-11T00:38:27.647Z,6.3
2017-08-11T00:39:30.107Z,6.2
2017-08-11T00:40:32.901Z,6.2
2017-08-11T00:41:35.352Z,6.2
2017-08-11T00:42:37.809Z,6.2
2017-08-11T00:43:40.248Z,6.2
2017-08-11T00:44:42.711Z,6.2
2017-08-11T00:45:45.162Z,6.2
2017-08-11T00:46:47.620Z,6.2
2017-08-11T00:47:50.415Z,6.2
2017-08-11T00:48:53.198Z,6.2
2017-08-11T00:49:55.992Z,6.2
2017-08-11T00:50:58.779Z,6.2
2017-08-11T00:52:01.233Z,6.2
2017-08-11T00:53:03.701Z,6.2
2017-08-11T00:54:06.153Z,6.2
2017-08-11T00:55:08.602Z,6.2
2017-08-11T00:56:11.051Z,6.2
2017-08-11T00:57:13.513Z,6.2
2017-08-11T00:58:15.993Z,6.2
2017-08-11T00:59:18.800Z,6.2
2017-08-11T01:00:21.239Z,6.2
2017-08-11T01:01:24.038Z,6.2
2017-08-11T01:02:26.844Z,6.2
2017-08-11T01:03:29.636Z,6.2
2017-08-11T01:04:32.414Z,6.2
2017-08-11T01:05:34.863Z,6.2
2017-08-11T01:06:37.316Z,6.2
2017-08-11T01:07:40.120Z,6.2
2017-08-11T01:08:42.567Z,6.2
2017-08-11T01:09:45.035Z,6.2
2017-08-11T01:10:47.839Z,6.2
2017-08-11T01:11:50.327Z,6.2
2017-08-11T01:12:53.125Z,6.2
2017-08-11T01:13:55.588Z,6.2
2017-08-11T01:14:58.743Z,6.2
2017-08-11T01:16:01.538Z,6.2
2017-08-11T01:17:04.694Z,6.2
2017-08-11T01:18:07.144Z,6.2
2017-08-11T01:19:09.580Z,6.2
2017-08-11T01:20:12.383Z,6.2
2017-08-11T01:21:14.840Z,6.2
2017-08-11T01:22:17.297Z,6.2
2017-08-11T01:23:20.450Z,6.2
2017-08-11T01:24:22.898Z,6.2
2017-08-11T01:25:25.385Z,6.2
2017-08-11T01:26:27.846Z,6.2
2017-08-11T01:27:30.304Z,6.2
2017-08-11T01:28:33.094Z,6.2
2017-08-11T01:29:35.553Z,6.2
2017-08-11T01:30:37.993Z,6.2
2017-08-11T01:31:41.138Z,6.2
2017-08-11T01:32:43.596Z,6.2
2017-08-11T01:33:46.034Z,6.2
2017-08-11T01:34:49.173Z,6.2
2017-08-11T01:35:51.978Z,6.2
2017-08-11T01:36:55.100Z,6.2
2017-08-11T01:37:57.898Z,6.3
2017-08-11T01:39:01.375Z,6.2
2017-08-11T01:40:04.163Z,6.2
2017-08-11T01:41:07.334Z,6.2
2017-08-11T01:42:09.790Z,6.2
2017-08-11T01:43:12.242Z,6.2
2017-08-11T01:44:15.037Z,6.2
2017-08-11T01:45:17.833Z,6.2
2017-08-11T01:46:20.292Z,6.2
2017-08-11T01:47:22.743Z,6.2
2017-08-11T01:48:25.537Z,6.2
2017-08-11T01:49:28.326Z,6.2
2017-08-11T01:50:30.785Z,6.2
2017-08-11T01:51:33.565Z,6.2
2017-08-11T01:52:36.370Z,6.2
2017-08-11T01:53:38.847Z,6.2
2017-08-11T01:54:41.636Z,6.2
2017-08-11T01:55:44.437Z,6.2
2017-08-11T01:56:46.884Z,6.2
2017-08-11T01:57:49.343Z,6.2
2017-08-11T01:58:51.801Z,6.2
2017-08-11T01:59:54.593Z,6.2
2017-08-11T02:00:57.054Z,6.2
2017-08-11T02:01:59.839Z,6.2
2017-08-11T02:03:02.298Z,6.2
2017-08-11T02:04:05.080Z,6.2
2017-08-11T02:05:07.872Z,6.2
2017-08-11T02:06:10.314Z,6.2
2017-08-11T02:07:12.772Z,6.2
2017-08-11T02:08:15.230Z,6.2
2017-08-11T02:09:17.687Z,6.2
2017-08-11T02:10:20.140Z,6.2
2017-08-11T02:11:22.930Z,6.2
2017-08-11T02:12:25.742Z,6.2
2017-08-11T02:13:28.539Z,6.2
2017-08-11T02:14:30.978Z,6.2
2017-08-11T02:15:33.786Z,6.2
2017-08-11T02:16:36.234Z,6.2
2017-08-11T02:17:38.678Z,6.2
2017-08-11T02:18:41.130Z,6.2
2017-08-11T02:19:43.581Z,6.2
2017-08-11T02:20:46.029Z,6.2
2017-08-11T02:21:48.829Z,6.2
2017-08-11T02:22:51.276Z,6.2
2017-08-11T02:23:54.086Z,6.2
2017-08-11T02:24:57.215Z,6.2
2017-08-11T02:25:59.664Z,6.2
2017-08-11T02:27:02.798Z,6.2
2017-08-11T02:28:05.602Z,6.2
2017-08-11T02:29:08.382Z,6.2
2017-08-11T02:30:10.848Z,6.2
2017-08-11T02:31:13.970Z,6.2
2017-08-11T02:32:16.430Z,6.2
2017-08-11T02:33:19.229Z,6.2
2017-08-11T02:34:22.024Z,6.2
2017-08-11T02:35:24.477Z,6.2
2017-08-11T02:36:26.931Z,6.2
2017-08-11T02:37:29.384Z,6.2
2017-08-11T02:38:32.198Z,6.2
2017-08-11T02:39:34.992Z,6.2
2017-08-11T02:40:37.782Z,6.2
2017-08-11T02:41:40.238Z,6.2
2017-08-11T02:42:42.707Z,6.2
2017-08-11T02:43:45.490Z,6.2
2017-08-11T02:44:47.952Z,6.2
2017-08-11T02:45:50.761Z,6.2
2017-08-11T02:46:53.894Z,6.2
2017-08-11T02:47:57.046Z,6.2
2017-08-11T02:48:59.509Z,6.2
2017-08-11T02:50:02.665Z,6.2
2017-08-11T02:51:05.484Z,6.2
2017-08-11T02:52:07.942Z,6.2
2017-08-11T02:53:10.736Z,6.2
2017-08-11T02:54:13.537Z,6.3
2017-08-11T02:55:16.011Z,6.2
2017-08-11T02:56:18.803Z,6.2
2017-08-11T02:57:21.238Z,6.2
2017-08-11T02:58:23.696Z,6.2
2017-08-11T02:59:26.165Z,6.2
2017-08-11T03:00:28.959Z,6.2
2017-08-11T03:01:31.405Z,6.2
2017-08-11T03:02:33.859Z,6.2
2017-08-11T03:03:36.664Z,6.2
2017-08-11T03:04:39.456Z,6.2
2017-08-11T03:05:42.261Z,6.2
2017-08-11T03:06:44.696Z,6.2
2017-08-11T03:07:47.162Z,6.2
2017-08-11T03:08:49.622Z,6.2
2017-08-11T03:09:52.739Z,6.2
2017-08-11T03:10:55.194Z,6.2
2017-08-11T03:11:57.646Z,6.2
2017-08-11T03:13:00.429Z,6.2
2017-08-11T03:14:03.237Z,6.3
2017-08-11T03:15:06.039Z,6.2
2017-08-11T03:16:08.871Z,6.2
2017-08-11T03:17:11.681Z,6.2
2017-08-11T03:18:14.133Z,6.3
2017-08-11T03:19:16.574Z,6.2
2017-08-11T03:20:19.707Z,6.2
2017-08-11T03:21:22.157Z,6.3
2017-08-11T03:22:24.601Z,6.2
2017-08-11T03:23:27.397Z,6.3
2017-08-11T03:24:29.848Z,6.2
2017-08-11T03:25:32.670Z,6.2
2017-08-11T03:26:35.128Z,6.3
2017-08-11T03:27:37.923Z,6.3
2017-08-11T03:28:41.048Z,6.3
2017-08-11T03:29:43.512Z,6.2
2017-08-11T03:30:46.646Z,6.2
2017-08-11T03:31:49.098Z,6.3
2017-08-11T03:32:51.560Z,6.2
2017-08-11T03:33:54.357Z,6.3
2017-08-11T03:34:56.800Z,6.2
2017-08-11T03:35:59.244Z,6.2
2017-08-11T03:37:02.030Z,6.2
2017-08-11T03:38:04.851Z,6.2
2017-08-11T03:39:07.977Z,6.2
2017-08-11T03:40:10.773Z,6.2
2017-08-11T03:41:13.572Z,6.2
2017-08-11T03:42:16.426Z,6.3
2017-08-11T03:43:18.874Z,6.2
2017-08-11T03:44:21.321Z,6.2
2017-08-11T03:45:24.460Z,6.2
2017-08-11T03:46:27.601Z,6.3
2017-08-11T03:47:30.039Z,6.2
2017-08-11T03:48:32.839Z,6.3
2017-08-11T03:49:35.310Z,6.3
2017-08-11T03:50:37.774Z,6.2
2017-08-11T03:51:40.566Z,6.3
2017-08-11T03:52:43.013Z,6.2
2017-08-11T03:53:45.455Z,6.2
2017-08-11T03:54:48.317Z,6.2
2017-08-11T03:55:51.100Z,6.2
2017-08-11T03:56:53.559Z,6.2
2017-08-11T03:57:56.025Z,6.2
2017-08-11T03:58:59.147Z,6.2
2017-08-11T04:00:01.938Z,6.2
2017-08-11T04:01:04.737Z,6.2
2017-08-11T04:02:07.192Z,6.3
2017-08-11T04:03:09.646Z,6.2
2017-08-11T04:04:12.110Z,6.2
2017-08-11T04:05:14.909Z,6.2
2017-08-11T04:06:17.344Z,6.2
2017-08-11T04:07:19.807Z,6.3
2017-08-11T04:08:22.588Z,6.2
2017-08-11T04:09:25.385Z,6.2
2017-08-11T04:10:28.173Z,6.2
2017-08-11T04:11:30.973Z,6.2
2017-08-11T04:12:33.757Z,6.2
2017-08-11T04:13:36.217Z,6.2
2017-08-11T04:14:38.668Z,6.2
2017-08-11T04:15:41.111Z,6.2
2017-08-11T04:16:43.894Z,6.2
2017-08-11T04:17:46.344Z,6.2
2017-08-11T04:18:48.815Z,6.2
2017-08-11T04:19:51.263Z,6.2
2017-08-11T04:20:54.038Z,6.2
2017-08-11T04:21:56.502Z,6.2
2017-08-11T04:22:58.962Z,6.2
2017-08-11T04:24:01.752Z,6.2
2017-08-11T04:25:04.877Z,6.2
2017-08-11T04:26:07.685Z,6.2
2017-08-11T04:27:10.471Z,6.2
2017-08-11T04:28:12.933Z,6.3
2017-08-11T04:29:15.423Z,6.2
2017-08-11T04:30:18.210Z,6.2
2017-08-11T04:31:20.682Z,6.2
2017-08-11T04:32:23.153Z,6.3
2017-08-11T04:33:25.633Z,6.2
2017-08-11T04:34:28.085Z,6.2
2017-08-11T04:35:30.544Z,6.2
2017-08-11T04:36:33.339Z,6.2
2017-08-11T04:37:35.792Z,6.2
2017-08-11T04:38:38.236Z,6.2
2017-08-11T04:39:40.697Z,6.2
2017-08-11T04:40:43.507Z,6.2
2017-08-11T04:41:45.971Z,6.2
2017-08-11T04:42:48.422Z,6.2
2017-08-11T04:43:50.904Z,6.2
2017-08-11T04:44:53.678Z,6.2
2017-08-11T04:45:56.502Z,6.2
2017-08-11T04:46:58.995Z,6.2
2017-08-11T04:48:01.445Z,6.2
2017-08-11T04:49:03.909Z,6.2
2017-08-11T04:50:06.704Z,6.3
2017-08-11T04:51:09.157Z,6.2
2017-08-11T04:52:11.628Z,6.1
2017-08-11T04:53:14.076Z,6.2
2017-08-11T04:54:16.887Z,6.2
2017-08-11T04:55:19.689Z,6.2
2017-08-11T04:56:22.500Z,6.2
2017-08-11T04:57:24.979Z,6.2
2017-08-11T04:58:27.784Z,6.2
2017-08-11T04:59:30.571Z,6.2
2017-08-11T05:00:33.031Z,6.2
2017-08-11T05:01:36.174Z,6.2
2017-08-11T05:02:38.990Z,6.2
2017-08-11T05:03:41.448Z,6.2
2017-08-11T05:04:43.898Z,6.2
2017-08-11T05:05:46.383Z,6.2
2017-08-11T05:06:48.830Z,6.2
2017-08-11T05:07:51.623Z,6.2
2017-08-11T05:08:54.424Z,6.2
2017-08-11T05:09:57.225Z,6.1
2017-08-11T05:10:59.996Z,6.2
2017-08-11T05:12:03.181Z,6.2
2017-08-11T05:13:05.967Z,6.2
2017-08-11T05:14:08.421Z,6.2
2017-08-11T05:15:10.917Z,6.2
2017-08-11T05:16:13.705Z,6.2
2017-08-11T05:17:16.506Z,6.2
2017-08-11T05:18:19.303Z,6.2
2017-08-11T05:19:21.755Z,6.2
2017-08-11T05:20:24.228Z,6.2
2017-08-11T05:21:26.685Z,6.2
2017-08-11T05:22:29.133Z,6.2
2017-08-11T05:23:31.926Z,6.2
2017-08-11T05:24:35.078Z,6.2
2017-08-11T05:25:37.535Z,6.2
2017-08-11T05:26:40.312Z,6.2
2017-08-11T05:27:43.115Z,6.2
2017-08-11T05:28:45.592Z,6.2
2017-08-11T05:29:48.730Z,6.2
2017-08-11T05:30:51.855Z,6.2
2017-08-11T05:31:54.645Z,6.2
2017-08-11T05:32:57.125Z,6.2
2017-08-11T05:33:59.597Z,6.2
2017-08-11T05:35:02.384Z,6.2
2017-08-11T05:36:04.861Z,6.2
2017-08-11T05:37:07.296Z,6.2
2017-08-11T05:38:10.101Z,6.1
2017-08-11T05:39:13.241Z,6.2
2017-08-11T05:40:16.029Z,6.1
2017-08-11T05:41:18.832Z,6.2
2017-08-11T05:42:21.628Z,6.2
2017-08-11T05:43:24.433Z,6.2
2017-08-11T05:44:27.210Z,6.1
2017-08-11T05:45:29.661Z,6.2
2017-08-11T05:46:32.811Z,6.2
2017-08-11T05:47:35.944Z,6.2
2017-08-11T05:48:38.732Z,6.2
2017-08-11T05:49:41.525Z,6.2
2017-08-11T05:50:44.315Z,6.2
2017-08-11T05:51:47.129Z,6.2
2017-08-11T05:52:49.927Z,6.2
2017-08-11T05:53:52.718Z,6.2
2017-08-11T05:54:55.171Z,6.2
2017-08-11T05:55:57.635Z,6.2
2017-08-11T05:57:00.088Z,6.2
2017-08-11T05:58:02.899Z,6.2
2017-08-11T05:59:05.686Z,6.2
2017-08-11T06:00:08.140Z,6.3
2017-08-11T06:01:10.605Z,6.2
2017-08-11T06:02:13.389Z,6.2
2017-08-11T06:03:16.180Z,6.2
2017-08-11T06:04:18.980Z,6.2
2017-08-11T06:05:21.441Z,6.2
2017-08-11T06:06:24.252Z,6.2
2017-08-11T06:07:27.052Z,6.1
2017-08-11T06:08:29.496Z,6.2
2017-08-11T06:09:31.945Z,6.2
2017-08-11T06:10:34.435Z,6.2
2017-08-11T06:11:36.886Z,6.2
2017-08-11T06:12:39.350Z,6.2
2017-08-11T06:13:41.803Z,6.2
2017-08-11T06:14:45.609Z,6.2
2017-08-11T06:15:48.075Z,6.2
2017-08-11T06:16:50.529Z,6.1
2017-08-11T06:17:53.314Z,6.2
2017-08-11T06:18:55.776Z,6.1
2017-08-11T06:19:58.891Z,6.1
2017-08-11T06:21:02.034Z,6.2
2017-08-11T06:22:04.486Z,6.2
2017-08-11T06:23:06.940Z,6.2
2017-08-11T06:24:10.412Z,6.2
2017-08-11T06:25:12.860Z,6.1
2017-08-11T06:26:15.993Z,6.2
2017-08-11T06:27:18.462Z,6.2
2017-08-11T06:28:21.240Z,6.2
2017-08-11T06:29:23.702Z,6.2
2017-08-11T06:30:26.487Z,6.2
2017-08-11T06:31:28.935Z,6.2
2017-08-11T06:32:31.724Z,6.2
2017-08-11T06:33:34.517Z,6.2
2017-08-11T06:34:36.961Z,6.2
2017-08-11T06:35:39.417Z,6.1
2017-08-11T06:36:42.561Z,6.2
2017-08-11T06:37:45.011Z,6.1
2017-08-11T06:38:47.463Z,6.2
2017-08-11T06:39:50.251Z,6.2
2017-08-11T06:40:53.046Z,6.2
2017-08-11T06:41:56.194Z,6.2
2017-08-11T06:42:58.987Z,6.2
2017-08-11T06:44:02.431Z,6.2
2017-08-11T06:45:05.235Z,6.2
2017-08-11T06:46:07.695Z,6.2
2017-08-11T06:47:10.496Z,6.2
2017-08-11T06:48:12.945Z,6.2
2017-08-11T06:49:15.731Z,6.2
2017-08-11T06:50:18.521Z,6.2
2017-08-11T06:51:21.337Z,6.2
2017-08-11T06:52:24.137Z,6.2
2017-08-11T06:53:26.924Z,6.2
2017-08-11T06:54:29.376Z,6.1
2017-08-11T06:55:31.841Z,6.2
2017-08-11T06:56:34.662Z,6.2
2017-08-11T06:57:37.123Z,6.2
2017-08-11T06:58:39.565Z,6.2
2017-08-11T06:59:42.038Z,6.2
2017-08-11T07:00:44.836Z,6.3
2017-08-11T07:01:47.969Z,6.2
2017-08-11T07:02:50.758Z,6.3
2017-08-11T07:03:53.209Z,6.2
2017-08-11T07:04:55.654Z,6.2
2017-08-11T07:05:58.462Z,6.2
2017-08-11T07:07:01.252Z,6.2
2017-08-11T07:08:04.716Z,6.2
2017-08-11T07:09:07.506Z,6.2
2017-08-11T07:10:10.658Z,6.2
2017-08-11T07:11:13.105Z,6.2
2017-08-11T07:12:15.566Z,6.2
2017-08-11T07:13:18.362Z,6.1
2017-08-11T07:14:20.823Z,6.2
2017-08-11T07:15:23.265Z,6.2
2017-08-11T07:16:25.723Z,6.2
2017-08-11T07:17:28.555Z,6.2
2017-08-11T07:18:31.337Z,6.2
2017-08-11T07:19:33.798Z,6.2
2017-08-11T07:20:36.254Z,6.2
2017-08-11T07:21:39.059Z,6.2
2017-08-11T07:22:41.516Z,6.3
2017-08-11T07:23:44.312Z,6.2
2017-08-11T07:24:47.090Z,6.2
2017-08-11T07:25:50.247Z,6.2
2017-08-11T07:26:53.066Z,6.2
2017-08-11T07:27:55.512Z,6.2
2017-08-11T07:28:57.973Z,6.2
2017-08-11T07:30:00.421Z,6.2
2017-08-11T07:31:02.863Z,6.2
2017-08-11T07:32:05.329Z,6.2
2017-08-11T07:33:08.159Z,6.2
2017-08-11T07:34:10.599Z,6.2
2017-08-11T07:35:13.047Z,6.2
2017-08-11T07:36:15.839Z,6.2
2017-08-11T07:37:18.975Z,6.2
2017-08-11T07:38:21.769Z,6.2
2017-08-11T07:39:24.213Z,6.2
2017-08-11T07:40:26.666Z,6.2
2017-08-11T07:41:29.138Z,6.2
2017-08-11T07:42:31.932Z,6.2
2017-08-11T07:43:34.718Z,6.1
2017-08-11T07:44:37.174Z,6.2
2017-08-11T07:45:39.970Z,6.1
2017-08-11T07:46:42.780Z,6.2
2017-08-11T07:47:45.573Z,6.1
2017-08-11T07:48:48.371Z,6.1
2017-08-11T07:49:51.149Z,6.2
2017-08-11T07:50:53.960Z,6.2
2017-08-11T07:51:56.405Z,6.2
2017-08-11T07:52:58.866Z,6.1
2017-08-11T07:54:01.313Z,6.2
2017-08-11T07:55:03.765Z,6.2
2017-08-11T07:56:06.216Z,6.2
2017-08-11T07:57:08.668Z,6.1
2017-08-11T07:58:11.111Z,6.2
2017-08-11T07:59:14.597Z,6.2
2017-08-11T08:00:17.053Z,6.2
2017-08-11T08:01:19.841Z,6.1
2017-08-11T08:02:22.297Z,6.1
2017-08-11T08:03:25.425Z,6.1
2017-08-11T08:04:27.865Z,6.1
2017-08-11T08:05:30.367Z,6.1
2017-08-11T08:06:33.364Z,6.1
2017-08-11T08:07:36.115Z,6.2
2017-08-11T08:08:39.147Z,6.2
2017-08-11T08:09:42.230Z,6.1
2017-08-11T08:10:45.599Z,6.2
2017-08-11T08:11:48.667Z,6.2
2017-08-11T08:12:51.387Z,6.2
2017-08-11T08:13:54.108Z,6.2
2017-08-11T08:14:56.822Z,6.2
2017-08-11T08:15:59.561Z,6.1
2017-08-11T08:17:02.604Z,6.2
2017-08-11T08:18:05.667Z,6.2
2017-08-11T08:19:08.371Z,6.2
2017-08-11T08:20:10.844Z,6.1
2017-08-11T08:21:13.315Z,6.2
2017-08-11T08:22:16.558Z,6.2
2017-08-11T08:23:19.706Z,6.1
2017-08-11T08:24:22.171Z,6.2
2017-08-11T08:25:24.612Z,6.1
2017-08-11T08:26:27.399Z,6.1
2017-08-11T08:27:30.190Z,6.1
2017-08-11T08:28:33.325Z,6.1
2017-08-11T08:29:36.153Z,6.2
2017-08-11T08:30:38.599Z,6.1
2017-08-11T08:31:41.051Z,6.2
2017-08-11T08:32:43.516Z,6.1
2017-08-11T08:33:46.311Z,6.2
2017-08-11T08:34:48.773Z,6.2
2017-08-11T08:35:51.899Z,6.2
2017-08-11T08:36:54.677Z,6.2
2017-08-11T08:37:57.150Z,6.1
2017-08-11T08:38:59.602Z,6.1
2017-08-11T08:40:02.406Z,6.1
2017-08-11T08:41:05.213Z,6.1
2017-08-11T08:42:07.667Z,6.1
2017-08-11T08:43:10.125Z,6.2
2017-08-11T08:44:12.930Z,6.2
2017-08-11T08:45:15.729Z,6.2
2017-08-11T08:46:18.522Z,6.2
2017-08-11T08:47:21.313Z,6.2
2017-08-11T08:48:23.779Z,6.2
2017-08-11T08:49:26.574Z,6.2
2017-08-11T08:50:29.379Z,6.2
2017-08-11T08:51:31.834Z,6.2
2017-08-11T08:52:35.009Z,6.2
2017-08-11T08:53:37.797Z,6.1
2017-08-11T08:54:40.260Z,6.2
2017-08-11T08:55:43.066Z,6.2
2017-08-11T08:56:45.519Z,6.1
2017-08-11T08:57:48.315Z,6.1
2017-08-11T08:58:50.799Z,6.2
2017-08-11T08:59:54.273Z,6.2
2017-08-11T09:00:56.725Z,6.2
2017-08-11T09:01:59.549Z,6.2
2017-08-11T09:03:03.003Z,6.2
2017-08-11T09:04:05.467Z,6.1
2017-08-11T09:05:07.908Z,6.1
2017-08-11T09:06:10.710Z,6.1
2017-08-11T09:07:13.505Z,6.2
2017-08-11T09:08:15.958Z,6.1
2017-08-11T09:09:19.161Z,6.2
2017-08-11T09:10:21.616Z,6.2
2017-08-11T09:11:24.439Z,6.2
2017-08-11T09:12:26.885Z,6.2
2017-08-11T09:13:29.695Z,6.1
2017-08-11T09:14:32.482Z,6.2
2017-08-11T09:15:34.941Z,6.2
2017-08-11T09:16:38.078Z,6.2
2017-08-11T09:17:40.528Z,6.2
2017-08-11T09:18:43.401Z,6.2
2017-08-11T09:19:46.189Z,6.2
2017-08-11T09:20:48.637Z,6.2
2017-08-11T09:21:51.435Z,6.2
2017-08-11T09:22:53.887Z,6.2
2017-08-11T09:23:56.373Z,6.1
2017-08-11T09:24:58.836Z,6.3
2017-08-11T09:26:01.979Z,6.2
2017-08-11T09:27:04.773Z,6.2
2017-08-11T09:28:07.228Z,6.3
2017-08-11T09:29:09.687Z,6.2
2017-08-11T09:30:12.140Z,6.2
2017-08-11T09:31:15.265Z,6.2
2017-08-11T09:32:17.726Z,6.1
2017-08-11T09:33:20.173Z,6.3
2017-08-11T09:34:22.997Z,6.2
2017-08-11T09:35:25.858Z,6.3
2017-08-11T09:36:28.666Z,6.3
2017-08-11T09:37:31.453Z,6.2
2017-08-11T09:38:34.289Z,6.3
2017-08-11T09:39:37.086Z,6.3
2017-08-11T09:40:39.538Z,6.3
2017-08-11T09:41:41.992Z,6.3
2017-08-11T09:42:44.443Z,6.3
2017-08-11T09:43:46.882Z,6.2
2017-08-11T09:44:49.330Z,6.2
2017-08-11T09:45:51.882Z,6.3
2017-08-11T09:46:54.340Z,6.3
2017-08-11T09:47:56.783Z,6.2
2017-08-11T09:48:59.586Z,6.3
2017-08-11T09:50:02.417Z,6.3
2017-08-11T09:51:05.216Z,6.3
2017-08-11T09:52:07.679Z,6.3
2017-08-11T09:53:10.808Z,6.3
2017-08-11T09:54:13.612Z,6.3
2017-08-11T09:55:16.410Z,6.3
2017-08-11T09:56:18.866Z,6.3
2017-08-11T09:57:21.664Z,6.3
2017-08-11T09:58:24.467Z,6.3
2017-08-11T09:59:27.623Z,6.3
2017-08-11T10:00:30.096Z,6.3
2017-08-11T10:01:32.934Z,6.3
2017-08-11T10:02:35.371Z,6.3
2017-08-11T10:03:37.854Z,6.3
2017-08-11T10:04:40.661Z,6.2
2017-08-11T10:05:43.459Z,6.3
2017-08-11T10:06:46.626Z,6.3
2017-08-11T10:07:49.077Z,6.3
2017-08-11T10:08:51.531Z,6.3
2017-08-11T10:09:55.354Z,6.3
2017-08-11T10:10:58.479Z,6.3
2017-08-11T10:12:00.934Z,6.3
2017-08-11T10:13:03.391Z,6.3
2017-08-11T10:14:05.853Z,6.3
2017-08-11T10:15:08.664Z,6.4
2017-08-11T10:16:11.108Z,6.4
2017-08-11T10:17:13.588Z,6.4
2017-08-11T10:18:16.382Z,6.4
2017-08-11T10:19:19.184Z,6.4
2017-08-11T10:20:21.993Z,6.4
2017-08-11T10:21:24.782Z,6.4
2017-08-11T10:22:27.575Z,6.4
2017-08-11T10:23:30.041Z,6.4
2017-08-11T10:24:32.507Z,6.4
2017-08-11T10:25:34.969Z,6.4
2017-08-11T10:26:37.766Z,6.4
2017-08-11T10:27:40.221Z,6.3
2017-08-11T10:28:42.688Z,6.3
2017-08-11T10:29:45.159Z,6.3
2017-08-11T10:30:47.944Z,6.3
2017-08-11T10:31:50.401Z,6.3
2017-08-11T10:32:52.865Z,6.3
2017-08-11T10:33:55.329Z,6.2
2017-08-11T10:34:57.785Z,6.3
2017-08-11T10:36:00.570Z,6.3
2017-08-11T10:37:03.030Z,6.2
2017-08-11T10:38:05.495Z,6.2
2017-08-11T10:39:07.947Z,6.3
2017-08-11T10:40:10.732Z,6.3
2017-08-11T10:41:13.536Z,6.3
2017-08-11T10:42:16.667Z,6.4
2017-08-11T10:43:19.469Z,6.3
2017-08-11T10:44:21.930Z,6.4
2017-08-11T10:45:24.391Z,6.4
2017-08-11T10:46:26.844Z,6.4
2017-08-11T10:47:29.312Z,6.4
2017-08-11T10:48:31.765Z,6.4
2017-08-11T10:49:34.227Z,6.5
2017-08-11T10:50:36.689Z,6.4
2017-08-11T10:51:39.490Z,6.5
2017-08-11T10:52:41.931Z,6.5
2017-08-11T10:53:44.724Z,6.5
2017-08-11T10:54:47.538Z,6.5
2017-08-11T10:55:49.987Z,6.5
2017-08-11T10:56:52.794Z,6.5
2017-08-11T10:57:55.587Z,6.5
2017-08-11T10:58:58.374Z,6.6
2017-08-11T11:00:00.831Z,6.6
2017-08-11T11:01:03.326Z,6.6
2017-08-11T11:02:06.105Z,6.6
2017-08-11T11:03:08.577Z,6.5
2017-08-11T11:04:11.027Z,6.6
2017-08-11T11:05:13.500Z,6.5
2017-08-11T11:06:15.951Z,6.6
2017-08-11T11:07:19.078Z,6.6
2017-08-11T11:08:21.529Z,6.6
2017-08-11T11:09:23.998Z,6.6
2017-08-11T11:10:26.456Z,6.6
2017-08-11T11:11:29.249Z,6.7
2017-08-11T11:12:31.698Z,6.7
2017-08-11T11:13:34.158Z,6.8
2017-08-11T11:14:36.612Z,6.8
2017-08-11T11:15:39.408Z,6.8
2017-08-11T11:16:42.571Z,6.8
2017-08-11T11:17:45.016Z,6.8
2017-08-11T11:18:48.167Z,6.8
2017-08-11T11:19:50.952Z,6.7
2017-08-11T11:20:53.405Z,6.7
2017-08-11T11:21:55.861Z,6.7
2017-08-11T11:22:58.311Z,6.8
2017-08-11T11:24:01.088Z,6.8
2017-08-11T11:25:04.234Z,6.9
2017-08-11T11:26:06.697Z,6.8
2017-08-11T11:27:09.149Z,6.9
2017-08-11T11:28:11.624Z,6.8
2017-08-11T11:29:14.423Z,6.7
2017-08-11T11:30:16.869Z,6.8
2017-08-11T11:31:19.331Z,6.8
2017-08-11T11:32:22.133Z,6.8
2017-08-11T11:33:24.586Z,6.9
2017-08-11T11:34:27.049Z,6.8
2017-08-11T11:35:29.495Z,6.8
2017-08-11T11:36:32.295Z,6.8
2017-08-11T11:37:34.751Z,6.8
2017-08-11T11:38:37.232Z,6.8
2017-08-11T11:39:39.675Z,6.8
2017-08-11T11:40:42.140Z,6.8
2017-08-11T11:41:44.595Z,6.7
2017-08-11T11:42:47.053Z,6.8
2017-08-11T11:43:50.920Z,6.8
2017-08-11T11:44:55.118Z,6.9
2017-08-11T11:45:57.541Z,6.8
2017-08-11T11:46:59.971Z,6.8
2017-08-11T11:48:02.466Z,6.9
2017-08-11T11:49:05.325Z,6.8
2017-08-11T11:50:07.857Z,6.8
2017-08-11T11:51:10.376Z,6.8
2017-08-11T11:52:13.242Z,6.3
2017-08-11T11:53:15.793Z,6.1
2017-08-11T11:54:18.404Z,6.1
2017-08-11T11:55:21.244Z,6.1
2017-08-11T11:56:23.768Z,6.2
2017-08-11T11:57:26.613Z,6.1
2017-08-11T11:58:29.125Z,6.1
2017-08-11T11:59:31.979Z,6.1
2017-08-11T12:00:34.822Z,6.1
2017-08-11T12:01:37.332Z,6.1
2017-08-11T12:02:40.898Z,6.1
2017-08-11T12:03:43.428Z,6.2
2017-08-11T12:04:46.273Z,6.1
2017-08-11T12:05:49.118Z,6.1
2017-08-11T12:06:51.641Z,6.1
2017-08-11T12:07:54.859Z,6.2
2017-08-11T12:08:57.706Z,6.1
2017-08-11T12:10:00.549Z,6.1
2017-08-11T12:11:03.411Z,6.1
2017-08-11T12:12:05.932Z,6.1
2017-08-11T12:13:08.434Z,6
2017-08-11T12:14:11.637Z,6.1
2017-08-11T12:15:14.489Z,6.1
2017-08-11T12:16:17.020Z,6
2017-08-11T12:17:20.266Z,6.1
2017-08-11T12:18:23.116Z,6.1
2017-08-11T12:19:25.644Z,6.1
2017-08-11T12:20:28.198Z,6.1
2017-08-11T12:21:30.708Z,6.1
2017-08-11T12:22:33.362Z,6
2017-08-11T12:23:36.235Z,6.1
2017-08-11T12:24:39.107Z,6.1
2017-08-11T12:25:41.976Z,6.1
2017-08-11T12:26:44.841Z,6.1
2017-08-11T12:27:47.382Z,6.1
2017-08-11T12:28:50.236Z,6.1
2017-08-11T12:29:52.751Z,6.1
2017-08-11T12:30:55.293Z,6.1
2017-08-11T12:31:57.819Z,6.1
2017-08-11T12:33:00.690Z,6.1
2017-08-11T12:34:03.221Z,6.1
2017-08-11T12:35:06.068Z,6.1
2017-08-11T12:36:08.501Z,6.1
2017-08-11T12:37:10.923Z,6.1
2017-08-11T12:38:13.361Z,6.1
2017-08-11T12:39:15.791Z,6
2017-08-11T12:40:18.555Z,6.1
2017-08-11T12:41:21.317Z,6.1
2017-08-11T12:42:23.758Z,6.1
2017-08-11T12:43:26.860Z,6.1
2017-08-11T12:44:29.274Z,6.1
2017-08-11T12:45:31.696Z,6.1
2017-08-11T12:46:34.463Z,6.1
2017-08-11T12:47:37.240Z,6.1
2017-08-11T12:48:40.044Z,6
2017-08-11T12:49:43.133Z,6.1
2017-08-11T12:50:45.575Z,6.1
2017-08-11T12:51:49.156Z,6.1
2017-08-11T12:52:51.611Z,6.1
2017-08-11T12:53:54.029Z,6.1
2017-08-11T12:54:56.454Z,6.1
2017-08-11T12:55:59.274Z,6.1
2017-08-11T12:57:02.468Z,6
2017-08-11T12:58:04.885Z,6.1
2017-08-11T12:59:07.798Z,6.1
2017-08-11T13:00:10.226Z,6.1
2017-08-11T13:01:13.176Z,6.1
2017-08-11T13:02:15.598Z,6.1
2017-08-11T13:03:18.018Z,6.1
2017-08-11T13:04:21.824Z,6.1
2017-08-11T13:05:24.796Z,6
2017-08-11T13:06:27.236Z,6.1
2017-08-11T13:07:30.026Z,6.1
2017-08-11T13:08:32.771Z,6.1
2017-08-11T13:09:35.344Z,6.1
2017-08-11T13:10:37.776Z,6.1
2017-08-11T13:11:40.198Z,6.1
2017-08-11T13:12:42.978Z,6.1
2017-08-11T13:13:45.561Z,6.1
2017-08-11T13:14:48.315Z,6.1
2017-08-11T13:15:50.869Z,6.1
2017-08-11T13:16:53.633Z,6.1
2017-08-11T13:17:56.381Z,6.1
2017-08-11T13:18:58.812Z,6.1
2017-08-11T13:20:01.444Z,6.1
2017-08-11T13:21:04.255Z,6.1
2017-08-11T13:22:06.724Z,6.1
2017-08-11T13:23:09.143Z,6.1
2017-08-11T13:24:11.688Z,6.1
2017-08-11T13:25:14.119Z,6
2017-08-11T13:26:16.539Z,6.1
2017-08-11T13:27:18.972Z,6.1
2017-08-11T13:28:21.492Z,6.1
2017-08-11T13:29:23.958Z,6.1
2017-08-11T13:30:26.379Z,6.1
2017-08-11T13:31:29.484Z,6
2017-08-11T13:32:32.235Z,6.1
2017-08-11T13:33:35.569Z,6.1
2017-08-11T13:34:38.548Z,6.1
2017-08-11T13:35:41.831Z,6
2017-08-11T13:36:44.264Z,6
2017-08-11T13:37:46.679Z,6
2017-08-11T13:38:49.107Z,6.1
2017-08-11T13:39:51.648Z,6
2017-08-11T13:40:54.081Z,6
2017-08-11T13:41:56.500Z,6.1
2017-08-11T13:42:59.254Z,6.2
2017-08-11T13:44:01.693Z,6.1
2017-08-11T13:45:04.588Z,6
2017-08-11T13:46:07.049Z,6.1
2017-08-11T13:47:09.868Z,6.1
2017-08-11T13:48:12.292Z,6.1
2017-08-11T13:49:15.174Z,6.1
2017-08-11T13:50:17.836Z,6
2017-08-11T13:51:20.275Z,6.1
2017-08-11T13:52:22.733Z,6.1
2017-08-11T13:53:25.489Z,6.1
2017-08-11T13:54:27.903Z,6.1
2017-08-11T13:55:30.690Z,6.1
2017-08-11T13:56:33.360Z,6
2017-08-11T13:57:35.783Z,6
2017-08-11T13:58:39.042Z,6
2017-08-11T13:59:41.465Z,6
2017-08-11T14:00:43.884Z,6
2017-08-11T14:01:46.796Z,6
2017-08-11T14:02:49.769Z,6
2017-08-11T14:03:52.189Z,6.1
2017-08-11T14:04:54.612Z,6.1
2017-08-11T14:05:57.034Z,6
2017-08-11T14:06:59.922Z,6
2017-08-11T14:08:03.254Z,6.1
2017-08-11T14:09:05.775Z,6
2017-08-11T14:10:08.540Z,6
2017-08-11T14:11:11.515Z,6.1
2017-08-11T14:12:13.948Z,6
2017-08-11T14:13:16.472Z,6
2017-08-11T14:14:19.314Z,6
2017-08-11T14:15:22.081Z,6.1
2017-08-11T14:16:24.539Z,6
2017-08-11T14:17:27.305Z,6
2017-08-11T14:18:30.745Z,6
2017-08-11T14:19:33.514Z,6.1
2017-08-11T14:20:36.611Z,6.1
2017-08-11T14:21:39.856Z,6.1
2017-08-11T14:22:42.671Z,6.1
2017-08-11T14:23:45.090Z,6
2017-08-11T14:24:47.880Z,6.1
2017-08-11T14:25:50.297Z,6